• Join FlightAware (Why Join?)
  • Login
  • US Flag 
03:12AM EST


 

Airport Tracker/Info


-or-


 

Live Flight TrackerFlight Track Log ✈ EJA312 ✈ 17-Oct-2013 ✈ KPHX - KLAS

Flight Track Log - Related Links

Times and Time Zones

All times are in EDT time to prevent confusion due to time zone crossing. See the EJA312 flight status page for this flight to view local times or setup timezone preferences in your user account.

Time Position Orientation Groundspeed Altitude Reporting Facility
EDT Latitude Longitude Course Direction KTS MPH feet Rate Location/Type
06:20PM 33.4333 -112.0500 270° West 174 200 2,700  Level Phoenix TRACON
06:21PM 33.4333 -112.0833 270° West 211 243 5,000 3,000 Climbing Phoenix TRACON
06:22PM 33.4400 -112.1403 278° West 229 264 6,900 3,000 Climbing Albuquerque Center
06:23PM 33.4950 -112.1914 322° Northwest 283 326 10,100 2,520 Climbing Albuquerque Center
06:24PM 33.5783 -112.2161 346° North 306 352 12,200 2,040 Climbing Albuquerque Center
06:25PM 33.6719 -112.2406 348° North 337 388 14,400 2,220 Climbing Albuquerque Center
06:26PM 33.7681 -112.2647 348° North 349 402 16,900 2,400 Climbing Albuquerque Center
06:27PM 33.8658 -112.2906 348° North 355 409 19,400 2,400 Climbing Albuquerque Center
06:28PM 33.9639 -112.3164 348° North 357 411 21,900 2,460 Climbing Albuquerque Center
06:29PM 34.0744 -112.3625 341° North 350 403 24,600 2,220 Climbing Albuquerque Center
06:30PM 34.1636 -112.4183 333° Northwest 358 412 26,600 1,620 Climbing Albuquerque Center
06:31PM 34.2578 -112.4750 334° Northwest 373 429 28,000 660 Climbing Albuquerque Center
06:32PM 34.3575 -112.5397 332° Northwest 398 458 28,000  Level Albuquerque Center
06:33PM 34.4644 -112.6047 333° Northwest 423 487 28,000  Level Albuquerque Center
06:34PM 34.5500 -112.7261 311° West 416 479 28,000  Level Albuquerque Center
06:35PM 34.6167 -112.8353 307° West 408 470 28,000  Level Albuquerque Center
06:36PM 34.6842 -112.9481 306° West 412 474 28,000  Level Albuquerque Center
06:37PM 34.7511 -113.0611 306° West 412 474 28,000  Level Albuquerque Center
06:38PM 34.8172 -113.1728 306° West 409 471 28,000  Level Albuquerque Center
06:39PM 34.8844 -113.2886 305° West 415 478 28,000  Level Albuquerque Center
06:40PM 34.9525 -113.4042 306° West 417 480 28,000  Level Los Angeles Center
06:41PM 35.0322 -113.5419 305° West 416 479 28,000  Level Los Angeles Center
06:43PM 35.1003 -113.6592 305° West 421 484 28,000 -480 Level Los Angeles Center
06:44PM 35.1694 -113.7756 306° West 424 488 27,100 -1,500 Descending Los Angeles Center
06:45PM 35.2372 -113.8958 305° West 428 493 25,000 -1,500 Descending Los Angeles Center
06:46PM 35.3197 -113.9875 318° Northwest 408 470 24,000 -1,440 Descending Los Angeles Center
06:47PM 35.4281 -114.0897 322° Northwest 407 468 22,100 -2,280 Descending Los Angeles Center
06:48PM 35.5172 -114.1739 322° Northwest 406 467 19,300 -2,760 Descending Los Angeles Center
06:49PM 35.6011 -114.2514 323° Northwest 390 449 16,500 -2,700 Descending Los Angeles Center
06:49PM 35.6147 -114.2681 315° West 385 443 16,200 -1,500 Descending Los Angeles Center
06:50PM 35.6797 -114.3256 324° Northwest 376 433 15,200 -1,260 Descending Los Angeles Center
06:50PM 35.6822 -114.3281 321° Northwest 374 430 15,100 -2,880 Descending Los Angeles Center
06:51PM 35.7433 -114.3864 322° Northwest 286 329 12,300 -2,760 Descending Los Angeles Center
06:51PM 35.7456 -114.3850 27° Northeast 292 336 12,300 -1,200 Level Los Angeles Center
06:52PM 35.8247 -114.4417 330° Northwest 276 318 10,900 -1,620 Descending Los Angeles Center
06:53PM 35.8717 -114.4864 322° Northwest 277 319 9,400 -1,800 Descending Los Angeles Center
06:53PM 35.8864 -114.4992 325° Northwest 276 318 9,100 -900 Descending Los Angeles Center
06:54PM 35.9436 -114.5533 323° Northwest 267 307 8,300 -660 Descending Los Angeles Center
06:55PM 35.9922 -114.6000 322° Northwest 262 302 8,000 -300 Descending Los Angeles Center
06:55PM 36.0014 -114.6086 323° Northwest 264 304 8,000  Level Los Angeles Center
06:56PM 36.0506 -114.6578 321° Northwest 267 307 8,000  Level Los Angeles Center
06:56PM 36.0611 -114.6642 334° Northwest 266 306 8,000  Level Los Angeles Center
06:57PM 36.1017 -114.7125 316° Northwest 267 307 8,000  Level Los Angeles Center
06:57PM 36.1022 -114.7339 272° West 270 311 8,000 -120 Level Los Angeles Center
06:58PM 36.1106 -114.8025 279° West 247 284 7,900 -540 Descending Los Angeles Center
06:58PM 36.1211 -114.8314 294° West 247 284 7,500 -1,020 Descending Los Angeles Center
06:59PM 36.1483 -114.8858 302° West 265 305 6,800 -1,020 Descending Los Angeles Center
06:59PM 36.1497 -114.9128 274° West 265 305 6,500 -1,560 Descending Los Angeles Center
07:00PM 36.1500 -114.9628 270° West 209 241 5,400 -1,860 Descending Los Angeles Center
07:00PM 36.1503 -114.9858 271° West 223 257 4,600 -1,500 Descending Los Angeles Center
07:01PM 36.1525 -115.0231 274° West 178 205 3,900 -720 Descending Los Angeles Center
07:01PM 36.1506 -115.0444 264° West 195 224 3,900 -180 Level Los Angeles Center
07:02PM 36.1508 -115.0850 270° West 172 198 3,700 -540 Descending Los Angeles Center
07:02PM 36.1506 -115.1011 269° West 178 205 3,400 -840 Descending Los Angeles Center
07:03PM 36.1358 -115.1353 242° Southwest 142 163 2,900 -720 Descending Los Angeles Center
07:03PM 36.1278 -115.1381 196° South 156 180 2,700 -720 Descending Los Angeles Center
07:04PM 36.1033 -115.1539 208° Southwest 129 148 2,200 -420 Descending Los Angeles Center
07:04PM 36.0906 -115.1606 203° Southwest 146 168 2,300 180 Climbing Los Angeles Center
07:06PM 36.0801 -115.1523 180° South  Level Estimated